This is the latest recevied weather packets stored in our database for station/object KD2DXJ. If no packets are shown the sender has not sent any weather packets the latest 10 day(s).
| Time | Temp. | Humidity | Pressure | Rain* | Wind** | Luminosity | Snow |
|---|---|---|---|---|---|---|---|
| 1777636575 | 4.44° C | 75% | 1012.4 hPa | 0 mm | - | 180 W/m² | - |
| 1777636272 | 4.44° C | 77% | 1012.3 hPa | 0 mm | - | 179 W/m² | - |
| 1777635972 | 4.44° C | 81% | 1012.3 hPa | 0 mm | - | 167 W/m² | - |
| 1777635668 | 4.44° C | 82% | 1012.3 hPa | 0 mm | - | 154 W/m² | - |
| 1777635365 | 4.44° C | 85% | 1012.3 hPa | 0 mm | - | 141 W/m² | - |
| 1777635062 | 5° C | 83% | 1012.3 hPa | 0 mm | - | 131 W/m² | - |
| 1777634757 | 4.44° C | 83% | 1012.2 hPa | 0 mm | - | 122 W/m² | - |
| 1777634455 | 3.89° C | 87% | 1012.2 hPa | 0 mm | - | 111 W/m² | - |
| 1777634152 | 2.78° C | 90% | 1012.4 hPa | 0 mm | - | 103 W/m² | - |
| 1777633848 | 2.78° C | 90% | 1012.3 hPa | 0 mm | - | 93 W/m² | - |
| 1777633546 | 3.33° C | 89% | 1012.2 hPa | 0 mm | - | 83 W/m² | - |
| 1777633244 | 2.78° C | 93% | 1012.1 hPa | 0 mm | - | 63 W/m² | - |
| 1777632941 | 1.11° C | 98% | 1012.1 hPa | 0 mm | - | 63 W/m² | - |
| 1777632637 | 0.56° C | 99% | 1012 hPa | 0 mm | - | 53 W/m² | - |
| 1777632334 | 0.56° C | 99% | 1012.1 hPa | 0 mm | - | 41 W/m² | - |
| 1777632031 | 0.56° C | 99% | 1012 hPa | 0 mm | - | 32 W/m² | - |
| 1777631729 | 0.56° C | 99% | 1012.1 hPa | 0 mm | - | 27 W/m² | - |
| 1777631426 | 0° C | 99% | 1011.9 hPa | 0 mm | - | 22 W/m² | - |
| 1777631123 | 0° C | 99% | 1011.9 hPa | 0 mm | - | 18 W/m² | - |
| 1777630820 | -0.56° C | 99% | 1012 hPa | 0 mm | - | 15 W/m² | - |
| 1777630516 | -0.56° C | 99% | 1012.2 hPa | 0 mm | - | 11 W/m² | - |
| 1777630213 | -0.56° C | 99% | 1011.8 hPa | 0 mm | - | 9 W/m² | - |
| 1777629911 | -1.11° C | 99% | 1012 hPa | 0 mm | - | 6 W/m² | - |
| 1777629609 | -1.11° C | 99% | 1011.9 hPa | 0 mm | - | 4 W/m² | - |
| 1777629304 | -0.56° C | 99% | 1011.8 hPa | 0 mm | - | 3 W/m² | - |
* Rain latest hour (hover to see other rain measurements)
** Current wind speed in m/s (hover to see current wind gust speed)